Time;durP1;ratioP1;P1;durP2;ratioP2;P2;SDS_P1;SDS_P2;PMS_P1;PMS_P2;Temp;Humidity;BMP_temperature;BMP_pressure;BME280_temperature;BME280_humidity;BME280_pressure;Samples;Min_cycle;Max_cycle;Signal;HPM_P1;HPM_P2
2021/08/30 00:01:10;;;;;;;5.60;5.10;;;20.10;68.00;;;;;;5094337;28;20209;-62
2021/08/30 00:03:36;;;;;;;5.05;4.55;;;20.10;68.10;;;;;;5094547;28;20363;-62
2021/08/30 00:06:01;;;;;;;5.88;5.38;;;20.10;68.00;;;;;;5094083;28;20166;-63
2021/08/30 00:08:27;;;;;;;5.85;5.03;;;20.10;68.00;;;;;;5093789;28;20287;-63
2021/08/30 00:10:52;;;;;;;5.72;5.03;;;20.10;68.00;;;;;;5095044;28;20249;-63
2021/08/30 00:13:18;;;;;;;5.68;5.10;;;20.10;68.00;;;;;;5094984;28;20287;-63
2021/08/30 00:15:43;;;;;;;5.70;5.18;;;20.20;68.10;;;;;;5093819;28;20200;-62
2021/08/30 00:18:12;;;;;;;5.70;5.20;;;20.10;68.00;;;;;;5094813;28;20624;-63
2021/08/30 00:20:37;;;;;;;5.28;4.78;;;20.10;68.90;;;;;;5094057;28;20229;-62
2021/08/30 00:23:03;;;;;;;4.97;4.45;;;20.10;68.10;;;;;;5093834;28;20663;-62
2021/08/30 00:25:28;;;;;;;6.78;5.85;;;20.10;68.00;;;;;;5094255;28;20170;-62
2021/08/30 00:27:54;;;;;;;5.93;5.32;;;20.10;68.00;;;;;;5094378;28;20694;-62
2021/08/30 00:30:19;;;;;;;5.90;5.40;;;20.10;68.10;;;;;;5093575;28;20170;-62
2021/08/30 00:32:45;;;;;;;5.43;4.93;;;20.10;68.00;;;;;;5094272;28;20170;-62
2021/08/30 00:35:10;;;;;;;5.55;5.05;;;20.10;68.00;;;;;;5094447;28;20524;-62
2021/08/30 00:37:36;;;;;;;5.43;4.85;;;20.10;68.00;;;;;;5093255;28;20173;-62
2021/08/30 00:40:03;;;;;;;5.72;5.22;;;20.10;68.00;;;;;;5094541;28;20169;-62
2021/08/30 00:42:29;;;;;;;5.20;4.78;;;20.10;68.10;;;;;;5108646;28;20645;-63
2021/08/30 00:44:55;;;;;;;6.18;5.38;;;20.10;68.10;;;;;;5094177;28;20205;-63
2021/08/30 00:47:21;;;;;;;5.18;4.68;;;20.10;68.00;;;;;;5093944;28;20216;-62
2021/08/30 00:49:46;;;;;;;5.13;4.63;;;20.10;68.10;;;;;;5093487;28;20292;-61
2021/08/30 00:52:12;;;;;;;6.63;4.93;;;20.10;68.10;;;;;;5109842;28;20170;-62
2021/08/30 00:54:38;;;;;;;6.00;5.18;;;20.10;68.10;;;;;;5109297;28;20186;-63
2021/08/30 00:57:03;;;;;;;6.60;4.70;;;20.10;68.10;;;;;;5109250;28;20272;-62
2021/08/30 00:59:29;;;;;;;5.88;5.30;;;20.10;68.10;;;;;;5092370;28;20170;-62
2021/08/30 01:01:55;;;;;;;4.88;4.38;;;20.10;68.10;;;;;;5093835;28;20319;-61
2021/08/30 01:04:20;;;;;;;5.32;4.82;;;20.10;68.10;;;;;;5093081;28;20192;-62
2021/08/30 01:06:56;;;;;;;5.35;4.85;;;20.10;69.00;;;;;;5109574;28;20185;-62
2021/08/30 01:09:27;;;;;;;5.82;4.43;;;20.10;68.10;;;;;;5109187;28;20182;-63
2021/08/30 01:12:02;;;;;;;5.30;4.90;;;20.10;68.10;;;;;;5093312;28;20178;-63
2021/08/30 01:14:28;;;;;;;5.32;4.82;;;20.10;68.00;;;;;;5092210;28;20165;-62
2021/08/30 01:16:54;;;;;;;6.93;5.20;;;20.10;68.00;;;;;;5092377;28;20189;-61
2021/08/30 01:19:20;;;;;;;5.00;4.57;;;20.10;68.00;;;;;;5108168;28;20236;-62
2021/08/30 01:21:46;;;;;;;5.28;4.75;;;20.10;68.10;;;;;;5092351;28;20216;-62
2021/08/30 01:24:20;;;;;;;8.63;6.13;;;20.10;68.10;;;;;;5093607;28;20169;-62
2021/08/30 01:26:54;;;;;;;5.28;4.78;;;20.10;68.00;;;;;;5092777;28;20319;-62
2021/08/30 01:29:48;;;;;;;4.97;4.57;;;20.10;68.10;;;;;;5107971;28;20170;-62
2021/08/30 01:32:30;;;;;;;5.18;4.68;;;20.00;68.00;;;;;;5092637;28;20534;-62
2021/08/30 01:34:57;;;;;;;5.95;5.35;;;20.00;68.00;;;;;;5093506;28;20548;-62
2021/08/30 01:37:22;;;;;;;5.25;4.75;;;20.10;68.10;;;;;;5108675;28;20200;-62
2021/08/30 01:39:47;;;;;;;4.65;4.18;;;20.10;68.00;;;;;;5091243;28;20268;-62
2021/08/30 01:42:13;;;;;;;5.38;4.88;;;20.00;68.00;;;;;;5091730;28;20628;-62
2021/08/30 01:44:38;;;;;;;5.10;4.60;;;20.00;68.00;;;;;;5108715;28;20230;-62
2021/08/30 01:47:04;;;;;;;5.43;4.93;;;20.10;68.10;;;;;;5108204;28;20178;-62
2021/08/30 01:49:30;;;;;;;5.28;4.75;;;20.00;68.10;;;;;;5092869;28;20181;-62
2021/08/30 01:51:56;;;;;;;4.95;4.55;;;20.00;68.00;;;;;;5091796;28;20241;-62
2021/08/30 01:54:22;;;;;;;5.13;4.63;;;20.00;68.00;;;;;;5090720;28;20242;-62
2021/08/30 01:56:50;;;;;;;5.25;4.75;;;20.10;68.10;;;;;;5108434;28;20178;-63
2021/08/30 02:02:00;;;;;;;5.10;4.60;;;20.00;68.00;;;;;;5105418;28;20216;-62
2021/08/30 02:04:26;;;;;;;5.00;4.60;;;20.00;68.00;;;;;;5108253;28;20165;-62
2021/08/30 02:06:51;;;;;;;5.38;4.90;;;20.00;68.00;;;;;;5091876;28;20193;-62
2021/08/30 02:09:17;;;;;;;5.45;4.85;;;20.00;68.00;;;;;;5091290;28;20165;-63
2021/08/30 02:11:42;;;;;;;4.35;3.95;;;20.00;68.30;;;;;;5092552;28;20177;-62
2021/08/30 02:14:08;;;;;;;5.47;4.75;;;20.00;68.00;;;;;;5092210;28;20177;-62
2021/08/30 02:16:34;;;;;;;4.95;4.38;;;20.00;68.00;;;;;;5092302;28;20499;-62
2021/08/30 02:19:02;;;;;;;5.45;4.97;;;20.00;68.00;;;;;;5092435;28;20236;-62
2021/08/30 02:21:40;;;;;;;5.32;4.82;;;20.00;68.10;;;;;;5091500;28;20202;-62
2021/08/30 02:24:20;;;;;;;5.10;4.70;;;20.00;68.00;;;;;;5107075;28;20196;-61
2021/08/30 02:27:10;;;;;;;5.55;4.85;;;20.00;68.10;;;;;;5107385;28;20201;-62
2021/08/30 02:29:47;;;;;;;4.50;4.10;;;20.00;68.00;;;;;;5106757;28;20174;-62
2021/08/30 02:32:14;;;;;;;5.25;4.75;;;20.00;68.00;;;;;;5092329;28;20226;-62
2021/08/30 02:34:41;;;;;;;4.65;4.20;;;20.00;68.00;;;;;;5092212;28;20438;-63
2021/08/30 02:37:06;;;;;;;4.82;4.07;;;20.00;68.00;;;;;;5091744;28;20227;-63
2021/08/30 02:39:32;;;;;;;5.03;4.53;;;20.00;68.00;;;;;;5107843;28;20171;-62
2021/08/30 02:41:57;;;;;;;5.43;4.78;;;20.00;68.00;;;;;;5091621;28;20209;-62
2021/08/30 02:44:23;;;;;;;5.38;4.88;;;20.00;68.00;;;;;;5107637;28;20174;-65
2021/08/30 02:46:48;;;;;;;4.60;4.20;;;20.00;68.10;;;;;;5107994;28;20620;-63
2021/08/30 02:49:14;;;;;;;4.80;4.30;;;20.00;68.00;;;;;;5091611;28;20178;-62
2021/08/30 02:51:40;;;;;;;5.72;4.95;;;20.00;68.00;;;;;;5107552;28;20174;-63
2021/08/30 02:54:06;;;;;;;5.40;4.90;;;20.00;68.10;;;;;;5107843;28;20169;-63
2021/08/30 02:56:31;;;;;;;4.95;4.45;;;20.00;68.00;;;;;;5089897;28;20177;-62
2021/08/30 02:58:57;;;;;;;4.90;4.45;;;20.00;68.00;;;;;;5090971;28;20162;-62
2021/08/30 03:01:23;;;;;;;5.10;4.60;;;20.00;68.10;;;;;;5090421;28;20571;-62
2021/08/30 03:03:48;;;;;;;5.10;4.70;;;20.00;68.10;;;;;;5106912;28;20659;-62
2021/08/30 03:06:14;;;;;;;4.80;4.30;;;20.00;68.20;;;;;;5090853;28;20177;-63
2021/08/30 03:08:40;;;;;;;5.15;4.50;;;20.00;68.10;;;;;;5091893;28;20177;-63
2021/08/30 03:11:05;;;;;;;4.30;3.88;;;20.00;68.20;;;;;;5091424;28;20181;-62
2021/08/30 03:13:31;;;;;;;5.20;4.70;;;20.00;68.10;;;;;;5090558;28;20170;-62
2021/08/30 03:15:56;;;;;;;4.10;3.80;;;20.00;68.10;;;;;;5107666;28;20173;-61
2021/08/30 03:18:22;;;;;;;5.22;4.57;;;20.00;68.10;;;;;;5106918;28;20620;-62
2021/08/30 03:20:47;;;;;;;5.55;4.95;;;20.00;68.10;;;;;;5090550;28;20229;-61
2021/08/30 03:23:22;;;;;;;4.82;4.32;;;20.00;68.10;;;;;;5090831;28;20230;-61
2021/08/30 03:25:48;;;;;;;5.10;4.60;;;19.90;68.00;;;;;;5090067;28;20178;-62
2021/08/30 03:28:13;;;;;;;5.32;4.68;;;19.90;68.00;;;;;;5107459;28;20174;-61
2021/08/30 03:30:39;;;;;;;4.60;4.20;;;20.00;68.10;;;;;;5090577;28;20174;-63
2021/08/30 03:33:04;;;;;;;4.68;4.28;;;19.90;68.00;;;;;;5107038;28;20170;-61
2021/08/30 03:35:30;;;;;;;4.85;4.35;;;20.00;68.10;;;;;;5090500;28;20177;-62
2021/08/30 03:37:56;;;;;;;4.50;4.10;;;19.90;68.00;;;;;;5107629;28;20169;-62
2021/08/30 03:40:22;;;;;;;4.88;4.47;;;19.90;68.00;;;;;;5091639;28;20170;-62
2021/08/30 03:42:47;;;;;;;4.90;4.50;;;19.90;68.00;;;;;;5095377;28;20668;-62
2021/08/30 03:45:13;;;;;;;6.22;4.78;;;19.90;68.00;;;;;;5093464;28;20177;-62
2021/08/30 03:47:38;;;;;;;4.93;4.53;;;20.00;68.20;;;;;;5110975;28;20174;-62
2021/08/30 03:50:04;;;;;;;5.47;4.47;;;19.90;68.00;;;;;;5111209;28;20170;-61
2021/08/30 03:52:33;;;;;;;5.05;4.57;;;19.90;68.00;;;;;;5110012;28;20180;-63
2021/08/30 03:54:59;;;;;;;4.70;4.30;;;19.90;68.10;;;;;;5110599;28;20544;-63
2021/08/30 03:57:25;;;;;;;4.38;4.00;;;19.90;68.00;;;;;;5110811;28;20696;-62
2021/08/30 03:59:53;;;;;;;4.68;4.25;;;19.90;68.00;;;;;;5094546;28;20174;-62
2021/08/30 04:02:19;;;;;;;4.80;4.40;;;19.90;68.00;;;;;;5110970;28;20209;-61
2021/08/30 04:04:44;;;;;;;4.72;4.32;;;19.90;68.10;;;;;;5110890;28;20180;-62
2021/08/30 04:07:10;;;;;;;4.70;4.30;;;19.90;68.10;;;;;;5093027;28;20546;-64
2021/08/30 04:09:36;;;;;;;4.90;4.53;;;19.90;68.10;;;;;;5110529;28;20222;-63
2021/08/30 04:12:02;;;;;;;4.70;4.30;;;19.90;68.00;;;;;;5110619;28;20276;-63
2021/08/30 04:14:28;;;;;;;4.60;4.15;;;19.90;68.10;;;;;;5093720;28;20715;-63
2021/08/30 04:16:53;;;;;;;4.57;4.20;;;19.90;68.00;;;;;;5110774;28;20256;-62
2021/08/30 04:19:19;;;;;;;5.35;4.82;;;19.90;68.00;;;;;;5094705;28;20213;-63
2021/08/30 04:21:44;;;;;;;5.15;4.65;;;19.90;68.00;;;;;;5094108;28;20225;-62
2021/08/30 04:24:10;;;;;;;5.68;4.82;;;19.90;68.00;;;;;;5094810;28;20201;-62
2021/08/30 04:26:36;;;;;;;5.03;4.63;;;19.90;68.10;;;;;;5094294;28;20277;-62
2021/08/30 04:29:01;;;;;;;4.57;4.25;;;19.90;68.00;;;;;;5093840;28;20654;-63
2021/08/30 04:31:27;;;;;;;4.57;4.15;;;19.90;68.00;;;;;;5094372;28;20180;-63
2021/08/30 04:33:52;;;;;;;5.18;4.68;;;19.90;68.00;;;;;;5094594;28;20174;-63
2021/08/30 04:36:18;;;;;;;5.03;4.55;;;19.90;68.20;;;;;;5093890;28;20166;-64
2021/08/30 04:38:43;;;;;;;5.10;4.60;;;19.90;68.00;;;;;;5094137;28;20170;-63
2021/08/30 04:41:09;;;;;;;5.32;4.82;;;19.90;68.00;;;;;;5094212;28;20205;-63
2021/08/30 04:43:34;;;;;;;5.38;4.68;;;19.90;68.10;;;;;;5093470;28;20652;-63
2021/08/30 04:46:00;;;;;;;5.47;4.97;;;19.90;68.10;;;;;;5094484;28;20283;-63
2021/08/30 04:48:25;;;;;;;5.07;4.68;;;19.90;68.10;;;;;;5093963;28;20166;-63
2021/08/30 04:50:51;;;;;;;5.05;4.63;;;19.90;68.10;;;;;;5093850;28;20178;-63
2021/08/30 04:53:16;;;;;;;5.20;4.70;;;19.90;68.00;;;;;;5094236;28;20192;-63
2021/08/30 04:55:42;;;;;;;5.38;4.88;;;19.90;68.10;;;;;;5093329;28;20174;-63
2021/08/30 04:58:11;;;;;;;5.18;4.68;;;19.90;68.00;;;;;;5094536;28;20189;-63
2021/08/30 05:00:37;;;;;;;5.13;4.72;;;19.90;68.00;;;;;;5094157;28;20182;-63
2021/08/30 05:03:02;;;;;;;5.15;4.68;;;19.90;68.10;;;;;;5093595;28;20300;-63
2021/08/30 05:05:28;;;;;;;4.95;4.40;;;19.90;68.00;;;;;;5093838;28;20247;-63
2021/08/30 05:07:53;;;;;;;5.60;5.05;;;19.90;68.10;;;;;;5094122;28;20219;-64
2021/08/30 05:10:19;;;;;;;5.70;5.20;;;19.90;68.10;;;;;;5093211;28;20223;-63
2021/08/30 05:12:44;;;;;;;5.18;4.75;;;19.90;68.00;;;;;;5093539;28;20551;-64
2021/08/30 05:15:10;;;;;;;5.10;4.70;;;19.90;68.10;;;;;;5094006;28;20166;-63
2021/08/30 05:17:35;;;;;;;4.85;4.45;;;19.90;68.10;;;;;;5092864;28;20184;-63
2021/08/30 05:20:01;;;;;;;4.55;4.15;;;19.90;68.00;;;;;;5093656;28;20218;-63
2021/08/30 05:22:26;;;;;;;5.22;4.82;;;19.90;68.00;;;;;;5093460;28;20692;-62
2021/08/30 05:24:52;;;;;;;5.05;4.60;;;19.90;68.00;;;;;;5092877;28;20570;-63
2021/08/30 05:27:17;;;;;;;5.22;4.60;;;19.90;68.10;;;;;;5093554;28;20260;-63
2021/08/30 05:29:43;;;;;;;5.45;4.95;;;19.90;68.00;;;;;;5093341;28;20205;-62
2021/08/30 05:32:08;;;;;;;5.40;4.88;;;19.90;68.10;;;;;;5092827;28;20265;-63
2021/08/30 05:34:34;;;;;;;5.50;4.97;;;19.90;68.10;;;;;;5093415;28;20170;-63
2021/08/30 05:37:00;;;;;;;5.13;4.72;;;19.90;68.00;;;;;;5093914;28;20182;-63
2021/08/30 05:39:25;;;;;;;4.57;4.18;;;19.90;68.10;;;;;;5092485;28;20182;-63
2021/08/30 05:41:50;;;;;;;4.53;4.13;;;19.90;68.00;;;;;;5093431;28;20206;-63
2021/08/30 05:44:16;;;;;;;5.05;4.57;;;19.90;68.10;;;;;;5093627;28;20169;-63
2021/08/30 05:46:42;;;;;;;6.18;4.90;;;19.90;68.10;;;;;;5092533;28;20170;-63
2021/08/30 05:49:07;;;;;;;4.88;4.47;;;19.90;68.10;;;;;;5093526;28;20166;-63
2021/08/30 05:51:33;;;;;;;6.75;4.95;;;19.90;68.10;;;;;;5093005;28;20169;-63
2021/08/30 05:53:58;;;;;;;5.28;4.78;;;19.90;68.10;;;;;;5092513;28;20580;-63
2021/08/30 05:56:24;;;;;;;5.05;4.55;;;19.90;68.00;;;;;;5092978;28;20577;-64
2021/08/30 05:58:49;;;;;;;5.35;4.85;;;19.90;68.00;;;;;;5092212;28;20197;-63
2021/08/30 06:01:15;;;;;;;4.90;4.50;;;19.90;68.10;;;;;;5093130;28;20687;-63
2021/08/30 06:03:40;;;;;;;5.22;4.82;;;19.90;68.00;;;;;;5092264;28;20182;-63
2021/08/30 06:06:06;;;;;;;6.28;5.18;;;19.90;68.00;;;;;;5108197;28;20170;-64
2021/08/30 06:08:31;;;;;;;5.55;5.05;;;19.90;68.00;;;;;;5092744;28;20197;-64
2021/08/30 06:10:57;;;;;;;4.45;4.13;;;19.90;68.10;;;;;;5092837;28;20173;-63
2021/08/30 06:13:24;;;;;;;4.97;4.50;;;20.00;68.10;;;;;;5092026;28;20178;-63
2021/08/30 06:15:50;;;;;;;5.22;4.43;;;20.00;67.90;;;;;;5092846;28;20222;-63
2021/08/30 06:18:15;;;;;;;4.40;4.00;;;20.00;67.80;;;;;;5092741;28;20272;-63
2021/08/30 06:20:41;;;;;;;5.07;4.55;;;20.00;67.80;;;;;;5091469;28;20217;-63
2021/08/30 06:23:07;;;;;;;5.68;5.05;;;20.10;67.80;;;;;;5092640;28;20232;-63
2021/08/30 06:25:33;;;;;;;6.65;5.10;;;20.10;67.70;;;;;;5092145;28;20557;-63
2021/08/30 06:27:58;;;;;;;5.00;4.60;;;20.10;67.70;;;;;;5091936;28;20219;-63
2021/08/30 06:30:24;;;;;;;5.22;4.72;;;20.10;67.60;;;;;;5092315;28;20478;-63
2021/08/30 06:32:50;;;;;;;5.25;4.75;;;20.10;67.50;;;;;;5092508;28;20227;-64
2021/08/30 06:35:15;;;;;;;5.65;5.05;;;20.10;67.40;;;;;;5091759;28;20679;-64
2021/08/30 06:37:42;;;;;;;4.88;4.47;;;20.10;67.40;;;;;;5092046;28;20174;-64
2021/08/30 06:40:09;;;;;;;5.35;4.32;;;20.10;67.40;;;;;;5092385;28;20200;-66
2021/08/30 06:42:34;;;;;;;5.22;4.72;;;20.10;67.60;;;;;;5091459;28;20217;-66
2021/08/30 06:45:00;;;;;;;5.60;5.03;;;20.10;67.60;;;;;;5092376;28;20219;-69
2021/08/30 06:47:25;;;;;;;5.78;5.18;;;20.10;67.80;;;;;;5092022;28;20177;-66
2021/08/30 06:49:51;;;;;;;7.10;5.30;;;20.10;67.90;;;;;;5091388;28;20574;-65
2021/08/30 06:52:16;;;;;;;7.47;5.65;;;20.20;68.10;;;;;;5092294;28;20181;-68
2021/08/30 06:54:42;;;;;;;7.70;5.00;;;20.20;68.00;;;;;;5091893;28;20166;-66
2021/08/30 06:57:07;;;;;;;4.88;4.32;;;20.20;68.00;;;;;;5091624;28;20182;-66
2021/08/30 06:59:33;;;;;;;7.45;5.05;;;20.10;68.00;;;;;;5091704;28;20201;-66
2021/08/30 07:01:58;;;;;;;4.65;4.25;;;20.10;68.10;;;;;;5092080;28;20750;-66
2021/08/30 07:04:23;;;;;;;6.88;4.78;;;20.10;68.20;;;;;;5090976;28;20256;-66
2021/08/30 07:06:49;;;;;;;5.25;4.50;;;20.20;68.30;;;;;;5092156;28;20182;-66
2021/08/30 07:09:14;;;;;;;5.40;4.90;;;20.10;68.20;;;;;;5091181;28;20223;-66
2021/08/30 07:11:40;;;;;;;7.70;4.70;;;20.10;68.20;;;;;;5091689;28;20255;-66
2021/08/30 07:14:06;;;;;;;5.10;4.60;;;20.10;68.20;;;;;;5092514;28;20628;-66
2021/08/30 07:16:31;;;;;;;7.40;5.40;;;20.00;68.10;;;;;;5095241;28;20172;-66
2021/08/30 07:18:57;;;;;;;5.85;5.00;;;20.10;68.20;;;;;;5095851;28;20261;-65
2021/08/30 07:21:23;;;;;;;5.85;4.65;;;20.10;68.20;;;;;;5095628;28;20208;-66
2021/08/30 07:23:49;;;;;;;4.97;4.57;;;20.10;68.20;;;;;;5095057;28;20185;-65
2021/08/30 07:26:15;;;;;;;6.25;5.00;;;20.10;68.20;;;;;;5095857;28;20174;-65
2021/08/30 07:28:40;;;;;;;5.75;5.20;;;20.10;68.30;;;;;;5095522;28;20220;-65
2021/08/30 07:31:06;;;;;;;6.40;5.20;;;20.10;68.20;;;;;;5095174;28;20257;-67
2021/08/30 07:33:31;;;;;;;5.43;4.93;;;20.10;68.30;;;;;;5095232;28;20192;-67
2021/08/30 07:35:57;;;;;;;9.43;5.18;;;20.10;69.10;;;;;;5095562;28;20170;-65
2021/08/30 07:38:22;;;;;;;6.40;5.75;;;20.20;68.40;;;;;;5094460;28;20689;-66
2021/08/30 07:40:48;;;;;;;5.38;4.75;;;20.10;68.20;;;;;;5095664;28;20703;-65
2021/08/30 07:43:13;;;;;;;6.30;5.45;;;20.20;68.30;;;;;;5095579;28;20205;-63
2021/08/30 07:45:39;;;;;;;6.20;4.82;;;20.20;68.30;;;;;;5094487;28;20181;-64
2021/08/30 07:48:05;;;;;;;5.53;4.68;;;20.20;68.20;;;;;;5095535;28;20385;-64
2021/08/30 07:50:30;;;;;;;6.72;5.22;;;20.30;68.30;;;;;;5095037;28;20635;-64
2021/08/30 07:52:56;;;;;;;5.38;4.55;;;20.30;68.20;;;;;;5094446;28;20189;-64
2021/08/30 07:55:21;;;;;;;6.22;4.68;;;20.30;68.20;;;;;;5095069;28;20181;-64
2021/08/30 07:57:50;;;;;;;5.90;4.80;;;20.30;68.30;;;;;;5095423;28;20262;-65
2021/08/30 08:00:15;;;;;;;6.53;4.75;;;20.20;68.20;;;;;;5094481;28;20177;-66
2021/08/30 08:02:41;;;;;;;5.88;5.28;;;20.20;68.30;;;;;;5094808;28;20228;-66
2021/08/30 08:05:07;;;;;;;5.25;4.78;;;20.20;68.40;;;;;;5094984;28;20631;-65
2021/08/30 08:07:32;;;;;;;5.10;4.47;;;20.20;68.40;;;;;;5094072;28;20178;-67
2021/08/30 08:09:58;;;;;;;5.88;4.88;;;20.20;68.40;;;;;;5095142;28;20174;-66
2021/08/30 08:12:23;;;;;;;7.05;4.97;;;20.30;68.50;;;;;;5094496;28;20193;-65
2021/08/30 08:14:49;;;;;;;5.97;4.97;;;20.30;68.40;;;;;;5094270;28;20209;-65
2021/08/30 08:17:14;;;;;;;6.53;5.03;;;20.30;68.50;;;;;;5094914;28;20177;-65
2021/08/30 08:19:40;;;;;;;5.95;5.07;;;20.40;68.30;;;;;;5093528;28;20236;-65
2021/08/30 08:22:05;;;;;;;5.47;4.60;;;20.40;67.90;;;;;;5094628;28;20213;-65
2021/08/30 08:24:31;;;;;;;6.88;5.45;;;20.50;67.70;;;;;;5094555;28;20180;-65
2021/08/30 08:26:56;;;;;;;7.15;5.00;;;20.50;67.70;;;;;;5093418;28;20180;-65
2021/08/30 08:29:25;;;;;;;5.43;4.93;;;20.60;67.60;;;;;;5094162;28;20174;-65
2021/08/30 08:31:51;;;;;;;6.05;4.78;;;20.70;67.70;;;;;;5094389;28;20711;-65
2021/08/30 08:34:16;;;;;;;7.88;5.40;;;20.60;67.60;;;;;;5093727;28;20265;-66
2021/08/30 08:36:42;;;;;;;5.45;4.88;;;20.60;67.80;;;;;;5094034;28;20165;-66
2021/08/30 08:39:08;;;;;;;6.95;5.57;;;20.60;67.80;;;;;;5094557;28;20173;-66
2021/08/30 08:41:35;;;;;;;6.05;4.97;;;20.60;67.90;;;;;;5093421;28;20197;-65
2021/08/30 08:44:01;;;;;;;5.57;4.82;;;20.60;67.90;;;;;;5094366;28;20182;-65
2021/08/30 08:46:27;;;;;;;5.63;5.13;;;20.60;68.00;;;;;;5094028;28;20197;-66
2021/08/30 08:48:53;;;;;;;7.60;5.50;;;20.60;68.00;;;;;;5093391;28;20496;-66
2021/08/30 08:51:18;;;;;;;6.50;5.47;;;20.60;67.90;;;;;;5094086;28;20192;-66
2021/08/30 08:53:44;;;;;;;5.90;5.10;;;20.60;68.00;;;;;;5109664;28;20177;-66
2021/08/30 08:56:13;;;;;;;6.10;5.45;;;20.60;68.10;;;;;;5093581;28;20170;-66
2021/08/30 08:58:40;;;;;;;5.65;4.97;;;20.60;68.00;;;;;;5093677;28;20204;-67
2021/08/30 09:01:12;;;;;;;6.18;5.28;;;20.70;67.90;;;;;;5093683;28;20257;-66
2021/08/30 09:03:45;;;;;;;5.03;4.40;;;20.70;67.80;;;;;;5092920;28;20201;-66
2021/08/30 09:06:11;;;;;;;5.63;4.88;;;20.70;67.90;;;;;;5094031;28;20253;-66
2021/08/30 09:08:41;;;;;;;6.00;5.40;;;20.60;68.00;;;;;;5093654;28;20205;-66
2021/08/30 09:11:19;;;;;;;5.13;4.63;;;20.60;68.10;;;;;;5093603;28;20200;-66
2021/08/30 09:13:53;;;;;;;6.32;5.15;;;20.60;68.30;;;;;;5093744;28;20170;-66
2021/08/30 09:16:19;;;;;;;7.53;5.47;;;20.60;68.30;;;;;;5092921;28;20169;-66
2021/08/30 09:18:45;;;;;;;6.57;5.32;;;20.60;68.20;;;;;;5093644;28;20173;-66
2021/08/30 09:21:11;;;;;;;5.82;5.28;;;20.60;68.10;;;;;;5092128;28;20685;-66
2021/08/30 09:23:38;;;;;;;5.22;4.72;;;20.70;68.10;;;;;;5092530;28;20182;-66
2021/08/30 09:26:04;;;;;;;5.85;5.25;;;20.70;67.90;;;;;;5093852;28;20219;-65
2021/08/30 09:28:33;;;;;;;5.95;5.38;;;20.70;68.00;;;;;;5093119;28;20228;-66
2021/08/30 09:31:00;;;;;;;5.38;4.88;;;20.70;68.00;;;;;;5092525;28;20166;-66
2021/08/30 09:33:25;;;;;;;5.53;4.97;;;20.70;68.10;;;;;;5093325;28;20186;-67
2021/08/30 09:36:00;;;;;;;5.47;4.97;;;20.70;68.10;;;;;;5093393;28;20620;-66
2021/08/30 09:38:27;;;;;;;5.65;5.15;;;20.70;68.20;;;;;;5091251;28;20185;-66
2021/08/30 09:41:03;;;;;;;6.60;5.10;;;20.70;68.20;;;;;;5093272;28;20174;-66
2021/08/30 09:43:28;;;;;;;6.72;5.55;;;20.60;68.10;;;;;;5092741;28;20193;-66
2021/08/30 09:45:54;;;;;;;5.82;5.15;;;20.60;68.30;;;;;;5092303;28;20219;-65
2021/08/30 09:48:24;;;;;;;5.57;5.05;;;20.60;68.30;;;;;;5091302;28;20178;-66
2021/08/30 09:50:49;;;;;;;7.60;5.38;;;20.60;68.20;;;;;;5093047;28;20177;-66
2021/08/30 09:53:15;;;;;;;5.55;5.05;;;20.70;68.20;;;;;;5092395;28;20624;-66
2021/08/30 09:55:40;;;;;;;5.15;4.60;;;20.70;68.10;;;;;;5092713;28;20220;-66
2021/08/30 09:58:06;;;;;;;5.10;4.63;;;20.70;68.00;;;;;;5108095;28;20174;-66
2021/08/30 10:00:31;;;;;;;5.35;4.72;;;20.80;68.00;;;;;;5108321;28;20623;-66
2021/08/30 10:02:58;;;;;;;5.60;5.10;;;20.90;67.90;;;;;;5108510;28;20218;-67
2021/08/30 10:05:24;;;;;;;5.60;5.10;;;20.90;67.80;;;;;;5091921;28;20231;-64
2021/08/30 10:07:53;;;;;;;5.43;4.93;;;20.80;67.80;;;;;;5092763;28;20250;-64
2021/08/30 10:10:19;;;;;;;5.95;5.22;;;20.90;67.90;;;;;;5107934;28;20173;-64
2021/08/30 10:12:44;;;;;;;5.47;4.82;;;20.90;68.00;;;;;;5092172;28;20230;-64
2021/08/30 10:15:10;;;;;;;5.57;5.07;;;20.90;68.00;;;;;;5108243;28;20207;-64
2021/08/30 10:17:43;;;;;;;5.57;4.50;;;20.90;68.10;;;;;;5107990;28;20185;-65
2021/08/30 10:20:16;;;;;;;5.65;5.13;;;20.90;68.10;;;;;;5106783;28;20230;-65
2021/08/30 10:22:42;;;;;;;7.75;6.10;;;20.90;68.10;;;;;;5092070;28;20664;-65
2021/08/30 10:25:15;;;;;;;6.45;5.85;;;20.90;68.20;;;;;;5092336;28;20170;-65
2021/08/30 10:27:41;;;;;;;6.97;6.28;;;20.90;68.20;;;;;;5091455;28;20261;-65
2021/08/30 10:30:08;;;;;;;6.70;5.93;;;20.90;68.20;;;;;;5092335;28;20253;-64
2021/08/30 10:32:41;;;;;;;7.70;6.68;;;20.90;68.10;;;;;;5092112;28;20177;-65
2021/08/30 10:35:17;;;;;;;8.20;6.75;;;20.90;68.00;;;;;;5091378;28;20227;-65
2021/08/30 10:37:47;;;;;;;7.35;6.57;;;20.90;68.10;;;;;;5091975;28;20185;-65
2021/08/30 10:40:16;;;;;;;7.70;6.72;;;20.90;68.10;;;;;;5091558;28;20170;-66
2021/08/30 10:42:42;;;;;;;8.35;6.22;;;20.90;68.00;;;;;;5091682;28;20671;-66
2021/08/30 10:45:08;;;;;;;6.68;5.82;;;21.00;67.90;;;;;;5092205;28;20189;-66
2021/08/30 10:47:35;;;;;;;7.20;6.50;;;21.10;67.70;;;;;;5091042;28;20647;-66
2021/08/30 10:50:00;;;;;;;6.82;6.18;;;21.20;67.50;;;;;;5094140;28;20208;-66
2021/08/30 10:52:35;;;;;;;7.45;6.25;;;21.20;67.30;;;;;;5111979;28;20205;-66
2021/08/30 10:55:01;;;;;;;9.55;6.55;;;21.20;67.30;;;;;;5110383;28;20173;-66
2021/08/30 10:57:53;;;;;;;7.70;6.80;;;21.20;67.30;;;;;;5096062;28;20189;-66
2021/08/30 11:00:29;;;;;;;8.02;6.13;;;21.20;67.50;;;;;;5095733;28;20182;-65
2021/08/30 11:02:55;;;;;;;7.90;5.95;;;21.10;67.80;;;;;;5095379;28;20690;-66
2021/08/30 11:05:25;;;;;;;9.27;5.75;;;21.10;67.90;;;;;;5095992;28;20185;-66
2021/08/30 11:07:52;;;;;;;8.30;6.30;;;21.00;68.10;;;;;;5096198;28;20189;-66
2021/08/30 11:10:19;;;;;;;6.25;5.43;;;21.00;68.40;;;;;;5095573;28;20181;-65
2021/08/30 11:12:44;;;;;;;8.82;6.32;;;21.00;68.50;;;;;;5095722;28;20307;-65
2021/08/30 11:15:10;;;;;;;7.97;6.03;;;20.90;68.50;;;;;;5095510;28;20300;-66
2021/08/30 11:17:36;;;;;;;9.27;6.07;;;20.90;68.50;;;;;;5095042;28;20734;-66
2021/08/30 11:20:02;;;;;;;7.20;6.25;;;20.90;68.50;;;;;;5095779;28;20225;-66
2021/08/30 11:22:28;;;;;;;7.60;6.32;;;21.00;68.50;;;;;;5094390;28;20213;-65
2021/08/30 11:24:53;;;;;;;6.60;5.90;;;21.00;68.50;;;;;;5095451;28;20177;-65
2021/08/30 11:27:26;;;;;;;7.57;5.72;;;20.90;68.50;;;;;;5095546;28;20177;-66
2021/08/30 11:29:55;;;;;;;9.80;5.90;;;20.90;68.40;;;;;;5094800;28;20178;-66
2021/08/30 11:32:22;;;;;;;10.88;6.10;;;21.00;68.50;;;;;;5095389;28;20539;-66
2021/08/30 11:34:48;;;;;;;5.80;5.20;;;20.90;68.30;;;;;;5095729;28;20201;-67
2021/08/30 11:37:25;;;;;;;6.10;5.35;;;21.00;68.40;;;;;;5094911;28;20678;-66
2021/08/30 11:39:58;;;;;;;9.30;6.47;;;21.00;68.30;;;;;;5095356;28;20538;-66
2021/08/30 11:42:27;;;;;;;6.15;5.55;;;21.10;68.10;;;;;;5095101;28;20209;-66
2021/08/30 11:44:53;;;;;;;6.57;5.20;;;21.20;67.80;;;;;;5094624;28;20173;-66
2021/08/30 11:47:19;;;;;;;5.90;5.30;;;21.20;67.50;;;;;;5095327;28;20184;-67
2021/08/30 11:49:50;;;;;;;6.68;5.38;;;21.20;67.60;;;;;;5095182;28;20249;-66
2021/08/30 11:52:17;;;;;;;13.05;5.15;;;21.10;67.70;;;;;;5094717;28;20269;-66
2021/08/30 11:55:04;;;;;;;5.93;5.32;;;21.10;67.80;;;;;;5094616;28;20691;-65
2021/08/30 11:57:48;;;;;;;6.57;5.38;;;21.10;67.70;;;;;;5093813;28;20173;-64
2021/08/30 12:00:21;;;;;;;7.47;5.65;;;21.10;68.00;;;;;;5094686;28;20181;-64
2021/08/30 12:02:47;;;;;;;6.10;5.50;;;21.20;68.10;;;;;;5094115;28;20228;-65
2021/08/30 12:05:12;;;;;;;6.80;6.10;;;21.20;67.80;;;;;;5093858;28;20624;-64
2021/08/30 12:07:38;;;;;;;6.00;5.38;;;21.20;67.90;;;;;;5094569;28;20674;-66
2021/08/30 12:10:13;;;;;;;6.03;5.43;;;21.20;68.00;;;;;;5094811;28;20658;-65
2021/08/30 12:15:28;;;;;;;5.90;5.30;;;21.30;67.80;;;;;;5094232;28;20166;-66
2021/08/30 12:17:58;;;;;;;6.72;5.40;;;21.30;67.50;;;;;;5094546;28;20174;-65
2021/08/30 12:20:31;;;;;;;6.63;5.53;;;21.40;67.40;;;;;;5093117;28;20677;-65
2021/08/30 12:23:01;;;;;;;5.85;5.25;;;21.40;67.40;;;;;;5094338;28;20213;-65
2021/08/30 12:25:29;;;;;;;5.63;5.13;;;21.40;67.40;;;;;;5094093;28;20561;-65
2021/08/30 12:27:55;;;;;;;5.28;4.78;;;21.40;67.30;;;;;;5093378;28;20184;-65
2021/08/30 12:30:25;;;;;;;5.75;5.13;;;21.50;67.10;;;;;;5093843;28;20166;-66
2021/08/30 12:32:52;;;;;;;5.72;5.18;;;21.40;67.20;;;;;;5093265;28;20628;-66
2021/08/30 12:35:25;;;;;;;6.13;5.10;;;21.40;67.40;;;;;;5094141;28;20177;-66
2021/08/30 12:37:52;;;;;;;6.20;5.60;;;21.40;67.20;;;;;;5094203;28;20181;-65
2021/08/30 12:40:18;;;;;;;5.70;5.20;;;21.40;67.40;;;;;;5093420;28;20170;-64
2021/08/30 12:42:44;;;;;;;5.75;4.82;;;21.50;67.20;;;;;;5093683;28;20228;-65
2021/08/30 12:45:10;;;;;;;5.28;4.78;;;21.60;67.00;;;;;;5094280;28;20172;-63
2021/08/30 12:47:35;;;;;;;7.68;5.13;;;21.60;66.90;;;;;;5092795;28;20213;-64
2021/08/30 12:50:01;;;;;;;5.38;4.93;;;21.70;67.00;;;;;;5094155;28;20201;-62
2021/08/30 12:52:27;;;;;;;5.05;4.65;;;21.70;67.00;;;;;;5093713;28;20170;-66